Time;durP1;ratioP1;P1;durP2;ratioP2;P2;SDS_P1;SDS_P2;PMS_P1;PMS_P2;Temp;Humidity;BMP_temperature;BMP_pressure;BME280_temperature;BME280_humidity;BME280_pressure;Samples;Min_cycle;Max_cycle;Signal;HPM_P1;HPM_P2
2023/07/18 00:01:16;;;;;;;3.20;1.38;;;;;;;;;;4931687;29;20066;-77
2023/07/18 00:03:43;;;;;;;2.55;1.52;;;;;;;;;;4934775;29;20066;-77
2023/07/18 00:06:11;;;;;;;3.17;1.77;;;;;;;;;;4935380;28;20047;-77
2023/07/18 00:08:40;;;;;;;2.80;1.38;;;;;;;;;;4955228;28;20047;-77
2023/07/18 00:11:09;;;;;;;3.55;1.77;;;;;;;;;;4950714;28;20059;-77
2023/07/18 00:13:40;;;;;;;5.45;3.20;;;;;;;;;;4935485;29;20054;-77
2023/07/18 00:16:08;;;;;;;6.15;2.22;;;;;;;;;;4931258;29;20390;-77
2023/07/18 00:18:35;;;;;;;2.28;1.17;;;;;;;;;;4933018;29;20047;-77
2023/07/18 00:21:05;;;;;;;2.25;1.35;;;;;;;;;;4951614;28;20458;-77
2023/07/18 00:23:32;;;;;;;2.60;1.60;;;;;;;;;;4942951;28;20517;-77
2023/07/18 00:25:59;;;;;;;2.10;1.35;;;;;;;;;;4934874;29;20062;-77
2023/07/18 00:28:29;;;;;;;2.92;1.35;;;;;;;;;;4947875;28;20417;-77
2023/07/18 00:31:00;;;;;;;1.73;1.15;;;;;;;;;;4946193;28;20505;-77
2023/07/18 00:33:27;;;;;;;3.30;1.60;;;;;;;;;;4946120;28;20051;-77
2023/07/18 00:35:54;;;;;;;2.25;1.60;;;;;;;;;;4919971;29;20047;-77
2023/07/18 00:38:24;;;;;;;2.28;1.50;;;;;;;;;;4938235;28;20059;-77
2023/07/18 00:40:51;;;;;;;2.92;1.60;;;;;;;;;;4913308;29;20073;-77
2023/07/18 00:43:21;;;;;;;5.40;1.67;;;;;;;;;;4945820;28;20055;-77
2023/07/18 00:45:49;;;;;;;1.88;1.60;;;;;;;;;;4942534;29;20039;-76
2023/07/18 00:48:17;;;;;;;3.58;1.55;;;;;;;;;;4935085;29;20052;-76
2023/07/18 00:51:04;;;;;;;1.90;1.02;;;;;;;;;;4966838;28;20055;-77
2023/07/18 00:53:38;;;;;;;3.00;1.33;;;;;;;;;;4942112;28;20050;-77
2023/07/18 00:56:05;;;;;;;3.63;1.70;;;;;;;;;;4967909;28;20504;-77
2023/07/18 00:58:33;;;;;;;3.30;1.65;;;;;;;;;;4935152;28;20055;-77
2023/07/18 01:01:01;;;;;;;2.63;2.10;;;;;;;;;;4957256;28;20047;-77
2023/07/18 01:03:31;;;;;;;3.45;1.20;;;;;;;;;;4971186;28;20047;-77
2023/07/18 01:05:58;;;;;;;5.75;2.13;;;;;;;;;;4970561;28;20042;-77
2023/07/18 01:08:26;;;;;;;2.58;1.40;;;;;;;;;;4941233;28;20058;-77
2023/07/18 01:10:53;;;;;;;3.15;1.30;;;;;;;;;;4941171;28;20050;-77
2023/07/18 01:13:23;;;;;;;4.70;1.70;;;;;;;;;;4936552;28;20432;-77
2023/07/18 01:15:51;;;;;;;1.30;1.10;;;;;;;;;;4970801;28;20523;-77
2023/07/18 01:18:22;;;;;;;1.63;1.15;;;;;;;;;;4955437;28;20559;-77
2023/07/18 01:20:54;;;;;;;1.70;1.50;;;;;;;;;;4956949;28;20055;-77
2023/07/18 01:23:24;;;;;;;1.95;1.48;;;;;;;;;;4937933;28;20050;-77
2023/07/18 01:25:51;;;;;;;3.55;1.65;;;;;;;;;;4939426;28;20417;-77
2023/07/18 01:28:18;;;;;;;2.42;2.00;;;;;;;;;;4939261;28;20058;-77
2023/07/18 01:30:46;;;;;;;2.55;1.52;;;;;;;;;;4940426;28;20057;-77
2023/07/18 01:33:16;;;;;;;3.10;1.88;;;;;;;;;;4953007;28;20042;-77
2023/07/18 01:35:43;;;;;;;3.72;1.95;;;;;;;;;;4955599;28;20051;-77
2023/07/18 01:38:10;;;;;;;4.15;1.95;;;;;;;;;;4969244;28;20520;-77
2023/07/18 01:40:39;;;;;;;3.97;2.05;;;;;;;;;;4954383;28;20050;-77
2023/07/18 01:43:06;;;;;;;2.58;1.73;;;;;;;;;;4950314;28;20046;-77
2023/07/18 01:45:37;;;;;;;2.65;2.15;;;;;;;;;;4969157;28;20058;-77
2023/07/18 01:48:07;;;;;;;2.00;1.67;;;;;;;;;;4935210;28;20062;-77
2023/07/18 01:50:34;;;;;;;3.03;2.25;;;;;;;;;;4938014;28;20069;-77
2023/07/18 01:53:01;;;;;;;3.80;1.67;;;;;;;;;;4938028;28;20626;-77
2023/07/18 01:55:29;;;;;;;2.58;1.75;;;;;;;;;;4938906;28;20050;-77
2023/07/18 01:58:02;;;;;;;2.35;1.73;;;;;;;;;;4938180;28;20042;-77
2023/07/18 02:00:30;;;;;;;2.85;1.52;;;;;;;;;;4954699;28;20051;-77
2023/07/18 02:02:58;;;;;;;3.00;1.65;;;;;;;;;;4954174;28;20057;-77
2023/07/18 02:05:27;;;;;;;3.38;2.03;;;;;;;;;;4954870;28;20500;-77
2023/07/18 02:07:59;;;;;;;2.53;1.45;;;;;;;;;;4955010;28;20416;-77
2023/07/18 02:10:27;;;;;;;4.22;1.70;;;;;;;;;;4956126;28;20121;-77
2023/07/18 02:12:57;;;;;;;4.20;1.85;;;;;;;;;;4933269;29;20521;-77
2023/07/18 02:15:29;;;;;;;2.20;1.67;;;;;;;;;;4936829;28;20058;-77
2023/07/18 02:17:57;;;;;;;4.32;1.80;;;;;;;;;;4949716;29;20051;-77
2023/07/18 02:20:24;;;;;;;2.70;1.77;;;;;;;;;;4935421;28;20055;-77
2023/07/18 02:22:51;;;;;;;3.72;1.70;;;;;;;;;;4969159;28;20046;-77
2023/07/18 02:25:18;;;;;;;4.18;2.20;;;;;;;;;;4966468;28;20043;-77
2023/07/18 02:27:48;;;;;;;5.53;1.90;;;;;;;;;;4952009;28;20046;-77
2023/07/18 02:30:16;;;;;;;1.75;1.17;;;;;;;;;;4953895;28;20077;-77
2023/07/18 02:32:51;;;;;;;1.48;1.38;;;;;;;;;;4937871;28;20051;-77
2023/07/18 02:35:23;;;;;;;3.08;1.75;;;;;;;;;;4953954;28;20043;-77
2023/07/18 02:37:55;;;;;;;2.57;1.60;;;;;;;;;;4936093;28;20074;-77
2023/07/18 02:40:25;;;;;;;2.90;1.40;;;;;;;;;;4938424;28;20811;-77
2023/07/18 02:42:52;;;;;;;3.70;1.80;;;;;;;;;;4936002;28;20061;-77
2023/07/18 02:45:21;;;;;;;3.22;1.92;;;;;;;;;;4952020;28;20096;-77
2023/07/18 02:47:50;;;;;;;2.70;1.90;;;;;;;;;;4970726;28;20428;-77
2023/07/18 02:50:17;;;;;;;2.92;2.28;;;;;;;;;;4936140;28;20058;-77
2023/07/18 02:52:47;;;;;;;1.85;1.55;;;;;;;;;;4931302;28;20417;-77
2023/07/18 02:55:15;;;;;;;2.13;1.92;;;;;;;;;;4954545;28;20046;-77
2023/07/18 02:57:42;;;;;;;2.22;1.70;;;;;;;;;;4938536;28;20050;-77
2023/07/18 03:00:19;;;;;;;1.75;1.65;;;;;;;;;;4941946;29;20501;-77
2023/07/18 03:02:48;;;;;;;2.60;1.92;;;;;;;;;;4954523;28;20042;-77
2023/07/18 03:05:17;;;;;;;2.70;2.05;;;;;;;;;;4951636;28;20417;-77
2023/07/18 03:07:47;;;;;;;2.63;1.92;;;;;;;;;;4951479;28;20034;-77
2023/07/18 03:10:19;;;;;;;3.10;1.85;;;;;;;;;;4953052;28;20555;-77
2023/07/18 03:12:46;;;;;;;3.03;1.65;;;;;;;;;;4937700;28;20046;-77
2023/07/18 03:15:19;;;;;;;3.33;2.47;;;;;;;;;;4951713;28;20062;-77
2023/07/18 03:17:49;;;;;;;2.38;1.52;;;;;;;;;;4939002;28;20047;-77
2023/07/18 03:20:19;;;;;;;4.18;1.70;;;;;;;;;;4970865;28;20054;-77
2023/07/18 03:22:47;;;;;;;4.35;1.77;;;;;;;;;;4928377;28;20069;-77
2023/07/18 03:25:16;;;;;;;5.55;1.85;;;;;;;;;;4966523;28;20049;-77
2023/07/18 03:27:45;;;;;;;4.18;2.00;;;;;;;;;;4933454;28;20065;-77
2023/07/18 03:30:13;;;;;;;2.85;2.13;;;;;;;;;;4935727;28;20050;-77
2023/07/18 03:32:42;;;;;;;2.20;1.98;;;;;;;;;;4951758;28;20054;-77
2023/07/18 03:35:14;;;;;;;3.58;2.22;;;;;;;;;;4968709;28;20488;-77
2023/07/18 03:37:42;;;;;;;3.70;2.22;;;;;;;;;;4937028;28;20055;-78
2023/07/18 03:40:15;;;;;;;3.80;2.42;;;;;;;;;;4953415;28;20051;-78
2023/07/18 03:42:43;;;;;;;3.28;2.38;;;;;;;;;;4949104;28;20051;-78
2023/07/18 03:45:13;;;;;;;3.45;2.10;;;;;;;;;;4970186;28;20485;-78
2023/07/18 03:47:40;;;;;;;3.25;2.05;;;;;;;;;;4950124;28;20413;-79
2023/07/18 03:50:12;;;;;;;6.32;2.00;;;;;;;;;;4952491;28;20421;-78
2023/07/18 03:52:40;;;;;;;3.03;2.55;;;;;;;;;;4937236;28;20051;-78
2023/07/18 03:55:10;;;;;;;10.38;2.67;;;;;;;;;;4938789;28;20053;-78
2023/07/18 03:57:37;;;;;;;4.35;2.47;;;;;;;;;;4939673;28;20074;-78
2023/07/18 04:00:14;;;;;;;4.85;2.10;;;;;;;;;;4955859;28;20421;-78
2023/07/18 04:02:44;;;;;;;3.75;2.25;;;;;;;;;;4969161;28;20445;-78
2023/07/18 04:05:13;;;;;;;4.30;2.40;;;;;;;;;;4956316;28;20043;-78
2023/07/18 04:07:41;;;;;;;3.58;2.35;;;;;;;;;;4953160;28;20054;-78
2023/07/18 04:10:13;;;;;;;3.05;2.13;;;;;;;;;;4934644;28;20042;-78
2023/07/18 04:12:43;;;;;;;3.80;2.25;;;;;;;;;;4953493;28;20066;-79
2023/07/18 04:15:12;;;;;;;2.72;1.95;;;;;;;;;;4936310;29;20106;-78
2023/07/18 04:17:41;;;;;;;3.92;2.03;;;;;;;;;;4951301;28;20066;-78
2023/07/18 04:20:10;;;;;;;3.38;2.25;;;;;;;;;;4956002;28;20051;-78
2023/07/18 04:22:37;;;;;;;3.05;2.45;;;;;;;;;;4937569;28;20061;-78
2023/07/18 04:25:06;;;;;;;2.45;2.17;;;;;;;;;;4942388;28;20055;-78
2023/07/18 04:27:34;;;;;;;4.95;2.20;;;;;;;;;;4958460;28;20056;-78
2023/07/18 04:30:02;;;;;;;2.70;2.22;;;;;;;;;;4958107;28;20051;-78
2023/07/18 04:32:31;;;;;;;3.08;2.20;;;;;;;;;;4956204;28;20058;-78
2023/07/18 04:34:59;;;;;;;4.82;1.92;;;;;;;;;;4935356;28;20054;-78
2023/07/18 04:37:29;;;;;;;6.50;2.83;;;;;;;;;;4954090;28;20409;-78
2023/07/18 04:39:56;;;;;;;4.60;2.63;;;;;;;;;;4942423;28;20050;-78
2023/07/18 04:42:23;;;;;;;2.92;2.22;;;;;;;;;;4936873;28;20500;-78
2023/07/18 04:44:52;;;;;;;2.58;2.05;;;;;;;;;;4973170;28;20057;-78
2023/07/18 04:47:25;;;;;;;2.50;1.70;;;;;;;;;;4971480;28;20051;-78
2023/07/18 04:49:56;;;;;;;3.35;2.03;;;;;;;;;;4943068;28;20053;-78
2023/07/18 04:52:23;;;;;;;4.93;3.08;;;;;;;;;;4952431;28;20494;-78
2023/07/18 04:54:53;;;;;;;4.05;2.10;;;;;;;;;;4939291;28;20451;-78
2023/07/18 04:57:21;;;;;;;3.85;2.38;;;;;;;;;;4958834;28;20127;-78
2023/07/18 04:59:48;;;;;;;3.92;2.13;;;;;;;;;;4956368;28;20047;-78
2023/07/18 05:02:17;;;;;;;3.47;2.40;;;;;;;;;;4974145;28;20047;-78
2023/07/18 05:04:44;;;;;;;2.53;2.15;;;;;;;;;;4953487;28;20058;-78
2023/07/18 05:07:14;;;;;;;2.17;1.98;;;;;;;;;;4957140;28;20070;-78
2023/07/18 05:09:46;;;;;;;2.97;2.00;;;;;;;;;;4955793;28;20054;-78
2023/07/18 05:12:13;;;;;;;3.15;2.03;;;;;;;;;;4957368;28;20057;-78
2023/07/18 05:14:43;;;;;;;2.08;1.75;;;;;;;;;;4954020;28;20512;-78
2023/07/18 05:17:10;;;;;;;4.15;2.33;;;;;;;;;;4956075;28;20062;-78
2023/07/18 05:19:41;;;;;;;2.88;1.80;;;;;;;;;;4974167;28;20039;-78
2023/07/18 05:22:12;;;;;;;2.75;2.47;;;;;;;;;;4971593;28;20484;-78
2023/07/18 05:24:39;;;;;;;2.47;2.13;;;;;;;;;;4952063;28;20046;-78
2023/07/18 05:27:06;;;;;;;3.40;1.98;;;;;;;;;;4955765;28;20412;-78
2023/07/18 05:29:33;;;;;;;9.20;2.50;;;;;;;;;;4955421;28;20505;-78
2023/07/18 05:32:01;;;;;;;2.13;1.65;;;;;;;;;;4974441;28;20051;-78
2023/07/18 05:34:30;;;;;;;2.47;1.85;;;;;;;;;;4934620;28;20047;-78
2023/07/18 05:37:00;;;;;;;2.65;1.77;;;;;;;;;;4939489;28;20493;-78
2023/07/18 05:39:27;;;;;;;3.67;1.77;;;;;;;;;;4936549;28;20050;-78
2023/07/18 05:41:55;;;;;;;3.47;2.13;;;;;;;;;;4940179;28;20047;-78
2023/07/18 05:44:24;;;;;;;4.70;2.45;;;;;;;;;;4939146;28;20065;-77
2023/07/18 05:46:51;;;;;;;3.85;2.30;;;;;;;;;;4937763;28;20524;-77
2023/07/18 05:49:19;;;;;;;11.55;3.03;;;;;;;;;;4938551;28;20069;-77
2023/07/18 09:14:17;;;;;;;;;;;;;;;;;;;;;
2023/07/18 12:42:15;;;;;;;3.60;2.03;;;;;;;;;;4984174;23;20501;-78
2023/07/18 12:44:44;;;;;;;3.58;2.05;;;;;;;;;;4957411;28;20054;-78
2023/07/18 12:47:11;;;;;;;2.67;1.55;;;;;;;;;;4956921;28;20047;-78
2023/07/18 12:49:39;;;;;;;2.25;1.50;;;;;;;;;;4954602;28;20059;-78
2023/07/18 12:52:07;;;;;;;2.42;1.40;;;;;;;;;;4973340;28;20057;-78
2023/07/18 12:54:35;;;;;;;8.07;1.88;;;;;;;;;;4954360;28;20047;-78
2023/07/18 12:57:02;;;;;;;2.80;1.80;;;;;;;;;;4975042;28;20054;-78
2023/07/18 12:59:31;;;;;;;2.92;1.88;;;;;;;;;;4954093;28;20047;-78
2023/07/18 13:01:58;;;;;;;3.85;1.98;;;;;;;;;;4957464;28;20460;-78
2023/07/18 13:04:26;;;;;;;1.85;1.40;;;;;;;;;;4937952;28;20046;-78
2023/07/18 13:06:53;;;;;;;2.85;1.60;;;;;;;;;;4938566;28;20047;-78
2023/07/18 13:09:21;;;;;;;2.70;2.08;;;;;;;;;;4939617;28;20054;-78
2023/07/18 13:11:51;;;;;;;2.80;1.65;;;;;;;;;;4933862;29;20110;-78
2023/07/18 13:14:24;;;;;;;3.05;2.25;;;;;;;;;;4956986;28;20400;-78
2023/07/18 13:16:52;;;;;;;7.80;2.15;;;;;;;;;;4941529;28;20055;-78
2023/07/18 13:19:20;;;;;;;5.70;2.25;;;;;;;;;;4940094;28;20055;-78
2023/07/18 13:21:47;;;;;;;8.25;2.67;;;;;;;;;;4937045;28;20043;-78
2023/07/18 13:24:17;;;;;;;3.35;2.40;;;;;;;;;;4938048;28;20429;-78
2023/07/18 13:26:49;;;;;;;;;;;;;;;;;;4937260;28;20054;-78
2023/07/18 13:29:16;;;;;;;3.35;2.50;;;;;;;;;;4958229;28;20309;-78
2023/07/18 13:31:43;;;;;;;4.28;1.52;;;;;;;;;;4940699;28;20062;-78
2023/07/18 13:34:15;;;;;;;5.68;2.65;;;;;;;;;;4945264;28;20062;-77
2023/07/18 13:36:49;;;;;;;2.67;2.25;;;;;;;;;;4972272;28;20425;-77
2023/07/18 13:39:16;;;;;;;3.63;2.15;;;;;;;;;;4970937;28;20621;-78
2023/07/18 16:07:12;;;;;;;3.70;1.83;;;;;;;;;;4263576;27;20048;-94
2023/07/18 16:09:48;;;;;;;4.28;2.22;;;;;;;;;;4912048;29;20052;-93
2023/07/18 16:12:20;;;;;;;5.32;2.30;;;;;;;;;;4899817;29;20063;-93
2023/07/18 16:14:50;;;;;;;4.68;2.13;;;;;;;;;;4929966;29;20045;-92
2023/07/18 16:17:21;;;;;;;3.75;1.58;;;;;;;;;;4936310;29;20056;-91
2023/07/18 16:19:51;;;;;;;4.07;2.10;;;;;;;;;;4923856;29;20024;-93
2023/07/18 16:22:21;;;;;;;4.15;1.80;;;;;;;;;;4937563;29;20059;-92
2023/07/18 16:24:48;;;;;;;2.42;1.70;;;;;;;;;;4922542;29;20044;-93
2023/07/18 16:27:16;;;;;;;3.08;1.85;;;;;;;;;;4934392;29;20030;-92
2023/07/18 16:29:43;;;;;;;11.18;2.08;;;;;;;;;;4942082;29;20032;-94
2023/07/18 16:32:11;;;;;;;7.20;1.80;;;;;;;;;;4939509;29;20021;-93
2023/07/18 16:34:41;;;;;;;2.95;2.33;;;;;;;;;;4924123;29;20077;-93
2023/07/18 16:37:09;;;;;;;4.13;2.13;;;;;;;;;;4937168;29;20028;-95
2023/07/18 16:39:38;;;;;;;2.90;1.75;;;;;;;;;;4927835;29;20032;-93
2023/07/18 16:42:06;;;;;;;2.63;2.10;;;;;;;;;;4938831;29;20230;-95
2023/07/18 16:44:35;;;;;;;2.95;1.88;;;;;;;;;;4920883;29;20046;-94
2023/07/18 16:47:03;;;;;;;2.20;1.80;;;;;;;;;;4941780;29;20032;-94
2023/07/18 16:49:31;;;;;;;4.00;1.83;;;;;;;;;;4938451;29;20066;-93
2023/07/18 16:52:01;;;;;;;3.28;2.10;;;;;;;;;;4909057;29;20051;-94
2023/07/18 16:54:29;;;;;;;2.30;1.80;;;;;;;;;;4913189;29;20060;-93
2023/07/18 16:57:00;;;;;;;4.03;3.58;;;;;;;;;;4920350;29;20020;-94
2023/07/18 16:59:28;;;;;;;2.22;1.85;;;;;;;;;;4936147;29;20040;-94
2023/07/18 17:01:56;;;;;;;9.15;2.20;;;;;;;;;;4912707;29;20036;-94
2023/07/18 17:04:24;;;;;;;5.75;1.80;;;;;;;;;;4939813;29;20038;-95
2023/07/18 17:06:51;;;;;;;4.15;1.75;;;;;;;;;;4923520;29;20040;-94
2023/07/18 17:09:20;;;;;;;4.38;2.05;;;;;;;;;;4942665;29;20038;-94
2023/07/18 17:11:53;;;;;;;6.68;2.30;;;;;;;;;;4941409;29;20020;-95
2023/07/18 17:14:24;;;;;;;3.28;1.98;;;;;;;;;;4925682;29;20052;-94
2023/07/18 17:16:52;;;;;;;2.22;1.42;;;;;;;;;;4901780;29;20043;-93
2023/07/18 17:19:22;;;;;;;3.28;2.13;;;;;;;;;;4942372;29;20028;-94
2023/07/18 17:21:49;;;;;;;3.63;1.98;;;;;;;;;;4917372;29;20055;-94
2023/07/18 17:24:16;;;;;;;2.17;1.98;;;;;;;;;;4921319;29;20032;-95
2023/07/18 17:26:44;;;;;;;2.97;2.08;;;;;;;;;;4899237;29;20032;-93
2023/07/18 17:29:11;;;;;;;3.42;2.20;;;;;;;;;;4927418;29;20036;-94
2023/07/18 17:31:40;;;;;;;4.18;2.10;;;;;;;;;;4901718;29;20041;-94
2023/07/18 17:34:08;;;;;;;3.13;2.25;;;;;;;;;;4924685;29;20036;-94
2023/07/18 17:36:40;;;;;;;5.55;2.20;;;;;;;;;;4925073;29;20032;-93
2023/07/18 17:39:10;;;;;;;2.95;1.98;;;;;;;;;;4923405;29;20048;-95
2023/07/18 17:41:38;;;;;;;5.10;2.15;;;;;;;;;;4923097;29;20053;-94
2023/07/18 17:44:05;;;;;;;4.20;2.50;;;;;;;;;;4938328;29;20040;-93
2023/07/18 17:46:35;;;;;;;3.67;2.40;;;;;;;;;;4936380;29;20048;-93
2023/07/18 17:49:04;;;;;;;3.83;2.17;;;;;;;;;;4941737;29;20058;-93
2023/07/18 17:51:32;;;;;;;3.08;2.38;;;;;;;;;;4920192;29;20058;-93
2023/07/18 17:54:01;;;;;;;7.45;1.95;;;;;;;;;;4940218;29;20056;-93
2023/07/18 17:56:31;;;;;;;3.28;1.55;;;;;;;;;;4939992;29;20042;-94
2023/07/18 17:58:59;;;;;;;3.05;2.50;;;;;;;;;;4941224;29;20063;-94
2023/07/18 18:01:26;;;;;;;4.45;2.55;;;;;;;;;;4941229;29;20047;-94
2023/07/18 18:03:54;;;;;;;2.80;2.33;;;;;;;;;;4909123;29;20036;-94
2023/07/18 18:06:28;;;;;;;4.15;1.90;;;;;;;;;;4921065;29;20024;-94
2023/07/18 18:08:58;;;;;;;3.42;2.17;;;;;;;;;;4896076;29;20146;-93
2023/07/18 18:11:26;;;;;;;3.42;2.40;;;;;;;;;;4905195;29;20256;-94
2023/07/18 18:13:56;;;;;;;2.40;2.00;;;;;;;;;;4897757;29;20042;-94
2023/07/18 18:16:24;;;;;;;2.70;1.98;;;;;;;;;;4915384;29;20029;-95
2023/07/18 18:18:51;;;;;;;4.63;2.00;;;;;;;;;;4896271;29;20041;-94
2023/07/18 18:21:19;;;;;;;4.00;2.65;;;;;;;;;;4922367;29;20035;-94
2023/07/18 18:23:51;;;;;;;1.95;1.75;;;;;;;;;;4899863;29;20043;-94
2023/07/18 18:26:18;;;;;;;2.83;1.85;;;;;;;;;;4922174;29;20032;-94
2023/07/18 18:28:46;;;;;;;4.13;2.58;;;;;;;;;;4921486;29;20025;-94
2023/07/18 18:31:39;;;;;;;2.97;1.90;;;;;;;;;;4914093;29;20044;-93
2023/07/18 18:34:10;;;;;;;2.58;2.15;;;;;;;;;;4932065;29;20051;-77
2023/07/18 18:36:37;;;;;;;2.33;1.50;;;;;;;;;;4917106;29;20056;-77
2023/07/18 18:39:09;;;;;;;9.77;1.67;;;;;;;;;;4935268;29;20058;-78
2023/07/18 18:41:37;;;;;;;3.65;2.58;;;;;;;;;;4917573;29;20062;-77
2023/07/18 18:44:04;;;;;;;2.42;1.95;;;;;;;;;;4939693;29;20401;-77
2023/07/18 18:46:32;;;;;;;4.90;2.50;;;;;;;;;;4927818;29;20073;-77
2023/07/18 18:48:59;;;;;;;2.28;1.63;;;;;;;;;;4937151;29;20066;-76
2023/07/18 18:51:26;;;;;;;2.70;1.95;;;;;;;;;;4936519;29;20051;-76
2023/07/18 18:53:54;;;;;;;3.15;2.30;;;;;;;;;;4951815;28;20050;-76
2023/07/18 18:56:25;;;;;;;4.72;2.20;;;;;;;;;;4913604;29;20409;-76
2023/07/18 18:58:52;;;;;;;6.50;2.38;;;;;;;;;;4920449;29;20481;-76
2023/07/18 19:01:22;;;;;;;7.55;2.28;;;;;;;;;;4909699;28;20044;-76
2023/07/18 19:03:50;;;;;;;2.22;1.55;;;;;;;;;;4938112;29;20417;-77
2023/07/18 19:06:17;;;;;;;4.20;2.00;;;;;;;;;;4919867;29;20078;-77
2023/07/18 19:08:44;;;;;;;2.33;1.63;;;;;;;;;;4920499;29;20047;-77
2023/07/18 19:11:12;;;;;;;3.97;2.15;;;;;;;;;;4952897;29;20059;-77
2023/07/18 19:13:40;;;;;;;2.72;2.13;;;;;;;;;;4921971;29;20054;-77
2023/07/18 19:16:12;;;;;;;3.13;2.03;;;;;;;;;;4928239;29;20055;-77
2023/07/18 19:18:42;;;;;;;1.98;1.77;;;;;;;;;;4919834;29;20047;-77
2023/07/18 19:21:09;;;;;;;15.52;2.58;;;;;;;;;;4926730;29;20058;-77
2023/07/18 19:23:39;;;;;;;6.97;2.65;;;;;;;;;;4921483;29;20525;-77
2023/07/18 19:26:09;;;;;;;3.55;2.53;;;;;;;;;;4920368;29;20055;-76
2023/07/18 19:28:40;;;;;;;3.03;2.20;;;;;;;;;;4950530;28;20047;-76
2023/07/18 19:31:07;;;;;;;4.00;2.17;;;;;;;;;;4918287;29;20054;-76
2023/07/18 19:33:37;;;;;;;5.68;3.08;;;;;;;;;;4920346;29;20054;-76
2023/07/18 19:36:04;;;;;;;2.85;2.08;;;;;;;;;;4937747;29;20043;-76
2023/07/18 19:38:31;;;;;;;3.63;2.45;;;;;;;;;;4916333;29;20056;-76
2023/07/18 19:40:59;;;;;;;3.22;2.15;;;;;;;;;;4930229;29;20044;-77
2023/07/18 19:43:26;;;;;;;2.92;1.70;;;;;;;;;;4939167;29;20411;-77
2023/07/18 19:45:57;;;;;;;4.18;2.20;;;;;;;;;;4948390;29;20047;-76
2023/07/18 19:48:27;;;;;;;3.28;2.92;;;;;;;;;;4945034;29;20064;-76
2023/07/18 19:50:54;;;;;;;4.53;2.25;;;;;;;;;;4933156;29;20047;-76
2023/07/18 19:53:24;;;;;;;4.32;2.63;;;;;;;;;;4935294;29;20413;-77
2023/07/18 19:55:54;;;;;;;6.78;2.67;;;;;;;;;;4955337;28;20461;-77
2023/07/18 19:58:24;;;;;;;2.75;2.47;;;;;;;;;;4935977;29;20047;-76
2023/07/18 20:00:51;;;;;;;5.05;2.90;;;;;;;;;;4917778;29;20055;-76
2023/07/18 20:03:22;;;;;;;4.88;2.60;;;;;;;;;;4951118;28;20433;-76
2023/07/18 20:05:50;;;;;;;3.45;2.25;;;;;;;;;;4933862;29;20051;-77
2023/07/18 20:08:17;;;;;;;4.63;2.42;;;;;;;;;;4950054;29;20055;-76
2023/07/18 20:10:44;;;;;;;6.07;2.55;;;;;;;;;;4936046;29;20512;-76
2023/07/18 20:13:16;;;;;;;8.57;3.45;;;;;;;;;;4926459;29;20058;-77
2023/07/18 20:15:44;;;;;;;8.63;2.30;;;;;;;;;;4946024;28;20040;-76
2023/07/18 20:18:11;;;;;;;3.53;2.38;;;;;;;;;;4940347;28;20051;-77
2023/07/18 20:20:40;;;;;;;4.32;2.65;;;;;;;;;;4904163;29;20490;-76
2023/07/18 20:23:07;;;;;;;2.13;1.88;;;;;;;;;;4926059;29;20047;-75
2023/07/18 20:25:34;;;;;;;5.72;2.53;;;;;;;;;;4952181;29;20047;-77
2023/07/18 20:28:02;;;;;;;2.78;1.75;;;;;;;;;;4910234;29;20063;-76
2023/07/18 20:30:30;;;;;;;4.35;2.45;;;;;;;;;;4927749;28;20063;-76
2023/07/18 20:32:58;;;;;;;4.05;2.30;;;;;;;;;;4931614;29;20043;-77
2023/07/18 20:35:29;;;;;;;3.95;2.67;;;;;;;;;;4919678;29;20051;-77
2023/07/18 20:37:58;;;;;;;5.55;2.78;;;;;;;;;;4919435;29;20047;-77
2023/07/18 20:40:25;;;;;;;3.65;2.38;;;;;;;;;;4901969;29;20036;-77
2023/07/18 20:42:52;;;;;;;3.88;2.15;;;;;;;;;;4914270;29;20051;-76
2023/07/18 20:45:25;;;;;;;4.03;2.85;;;;;;;;;;4943016;28;20062;-76
2023/07/18 20:47:54;;;;;;;6.13;2.60;;;;;;;;;;4927062;29;20055;-77
2023/07/18 20:50:23;;;;;;;4.78;3.00;;;;;;;;;;4916228;29;20052;-78
2023/07/18 20:52:55;;;;;;;5.17;2.53;;;;;;;;;;4951524;28;20058;-77
2023/07/18 20:55:24;;;;;;;4.45;2.63;;;;;;;;;;4937784;28;20054;-77
2023/07/18 20:57:56;;;;;;;2.72;2.30;;;;;;;;;;4934243;28;20066;-77
2023/07/18 21:00:23;;;;;;;5.95;2.85;;;;;;;;;;4909306;29;20421;-77
2023/07/18 21:02:58;;;;;;;4.18;2.42;;;;;;;;;;4933935;23;20446;-82
2023/07/18 21:05:27;;;;;;;5.20;2.92;;;;;;;;;;4950738;28;20551;-81
2023/07/18 21:08:00;;;;;;;6.05;2.38;;;;;;;;;;4952383;29;20062;-81
2023/07/18 21:10:32;;;;;;;3.83;2.58;;;;;;;;;;4975323;28;20049;-81
2023/07/18 21:12:59;;;;;;;8.55;2.60;;;;;;;;;;5001846;28;20046;-81
2023/07/18 21:15:26;;;;;;;3.17;2.67;;;;;;;;;;4980563;28;20049;-81
2023/07/18 21:17:54;;;;;;;3.55;2.33;;;;;;;;;;4957894;28;20493;-81
2023/07/18 21:20:24;;;;;;;5.95;3.10;;;;;;;;;;4968250;28;20054;-81
2023/07/18 21:22:53;;;;;;;6.35;3.45;;;;;;;;;;4958352;28;20055;-81
2023/07/18 21:25:21;;;;;;;4.65;2.70;;;;;;;;;;4969757;28;20117;-80
2023/07/18 21:27:49;;;;;;;5.13;2.60;;;;;;;;;;4950747;28;20058;-79
2023/07/18 21:30:19;;;;;;;5.43;3.00;;;;;;;;;;4967451;28;20054;-79
2023/07/18 21:32:46;;;;;;;5.38;2.78;;;;;;;;;;4949912;29;20066;-79
2023/07/18 21:35:14;;;;;;;3.22;2.80;;;;;;;;;;4956295;28;20065;-79
2023/07/18 21:37:41;;;;;;;5.80;2.72;;;;;;;;;;4966425;28;20050;-79
2023/07/18 21:40:10;;;;;;;3.53;2.97;;;;;;;;;;4968252;28;20055;-79
2023/07/18 21:42:37;;;;;;;5.75;3.97;;;;;;;;;;4986329;28;20050;-79
2023/07/18 21:45:07;;;;;;;3.78;2.67;;;;;;;;;;4990061;28;20047;-79
2023/07/18 21:47:34;;;;;;;4.00;2.65;;;;;;;;;;4952279;28;20049;-79
2023/07/18 21:50:04;;;;;;;3.08;2.63;;;;;;;;;;4975546;28;20054;-79
2023/07/18 21:52:31;;;;;;;3.67;2.88;;;;;;;;;;4947002;28;20043;-79
2023/07/18 21:54:59;;;;;;;4.43;2.45;;;;;;;;;;4982481;28;20053;-79
2023/07/18 21:57:29;;;;;;;5.72;3.22;;;;;;;;;;4944387;28;20050;-79
2023/07/18 21:59:56;;;;;;;5.20;2.80;;;;;;;;;;4981318;28;20051;-79
2023/07/18 22:02:33;;;;;;;5.78;2.67;;;;;;;;;;4967580;28;20046;-79
2023/07/18 22:05:01;;;;;;;2.55;2.35;;;;;;;;;;4964919;28;20055;-79
2023/07/18 22:07:31;;;;;;;6.10;2.63;;;;;;;;;;4945525;28;20054;-79
2023/07/18 22:09:59;;;;;;;4.68;3.25;;;;;;;;;;4943022;28;20055;-79
2023/07/18 22:12:30;;;;;;;6.57;3.33;;;;;;;;;;4960248;28;20488;-79
2023/07/18 22:14:58;;;;;;;6.53;3.20;;;;;;;;;;4950224;28;20050;-79
2023/07/18 22:17:25;;;;;;;3.63;3.03;;;;;;;;;;4945384;28;20055;-79
2023/07/18 22:19:56;;;;;;;3.97;2.58;;;;;;;;;;4941841;28;20051;-79
2023/07/18 22:22:23;;;;;;;4.45;2.97;;;;;;;;;;4986686;28;20050;-79
2023/07/18 22:24:50;;;;;;;5.55;2.60;;;;;;;;;;4968756;28;20054;-79
2023/07/18 22:27:24;;;;;;;4.03;2.80;;;;;;;;;;4963621;28;20057;-79
2023/07/18 22:29:54;;;;;;;6.03;2.85;;;;;;;;;;4970440;28;20051;-79
2023/07/18 22:32:26;;;;;;;2.85;2.13;;;;;;;;;;4985218;28;20385;-80
2023/07/18 22:34:53;;;;;;;6.95;3.75;;;;;;;;;;4979866;28;20043;-79
2023/07/18 22:37:22;;;;;;;8.73;3.28;;;;;;;;;;4962140;28;20050;-79
2023/07/18 22:39:49;;;;;;;4.78;2.70;;;;;;;;;;4962468;28;20050;-79
2023/07/18 22:42:18;;;;;;;4.95;3.00;;;;;;;;;;4964504;28;20059;-79
2023/07/18 22:44:46;;;;;;;4.75;3.00;;;;;;;;;;4959751;28;20043;-79
2023/07/18 22:47:14;;;;;;;4.90;3.67;;;;;;;;;;4950786;28;20058;-79
2023/07/18 22:49:45;;;;;;;4.32;3.45;;;;;;;;;;4972153;28;20400;-79
2023/07/18 22:52:17;;;;;;;6.30;3.17;;;;;;;;;;4942594;28;20054;-79
2023/07/18 22:54:49;;;;;;;3.67;3.30;;;;;;;;;;4941112;28;20063;-79
2023/07/18 22:57:17;;;;;;;4.35;3.03;;;;;;;;;;4948730;28;20066;-79
2023/07/18 22:59:46;;;;;;;3.22;2.92;;;;;;;;;;4980023;28;20043;-79
2023/07/18 23:02:16;;;;;;;4.65;3.70;;;;;;;;;;4944713;28;20054;-79
2023/07/18 23:04:43;;;;;;;3.70;2.75;;;;;;;;;;4959777;28;20062;-79
2023/07/18 23:07:13;;;;;;;6.43;3.75;;;;;;;;;;4970979;28;20054;-79
2023/07/18 23:09:41;;;;;;;5.03;3.40;;;;;;;;;;4963387;28;20054;-79
2023/07/18 23:12:12;;;;;;;3.30;2.97;;;;;;;;;;4960990;28;20055;-79
2023/07/18 23:14:39;;;;;;;4.97;2.97;;;;;;;;;;4944598;28;20051;-79
2023/07/18 23:17:09;;;;;;;5.47;3.45;;;;;;;;;;4935950;28;20054;-79
2023/07/18 23:19:36;;;;;;;4.05;3.40;;;;;;;;;;4963868;28;20488;-79
2023/07/18 23:22:06;;;;;;;3.28;2.97;;;;;;;;;;4972749;28;20321;-79
2023/07/18 23:24:33;;;;;;;3.85;2.72;;;;;;;;;;4941612;28;20505;-79
2023/07/18 23:27:01;;;;;;;3.10;2.55;;;;;;;;;;4949707;28;20445;-79
2023/07/18 23:29:29;;;;;;;5.57;3.58;;;;;;;;;;4962821;28;20409;-79
2023/07/18 23:32:01;;;;;;;;;;;;;;;;;;4961886;28;20042;-79
2023/07/18 23:34:31;;;;;;;4.03;3.00;;;;;;;;;;4942966;28;19922;-79
2023/07/18 23:37:00;;;;;;;5.05;3.47;;;;;;;;;;4955677;28;20539;-79
2023/07/18 23:39:30;;;;;;;4.25;3.38;;;;;;;;;;4946314;28;20050;-79
2023/07/18 23:41:57;;;;;;;3.85;3.00;;;;;;;;;;4962508;28;20057;-79
2023/07/18 23:44:24;;;;;;;7.28;3.75;;;;;;;;;;4960379;28;20701;-79
2023/07/18 23:46:53;;;;;;;4.97;2.80;;;;;;;;;;4957338;28;20053;-79
2023/07/18 23:49:21;;;;;;;7.25;3.90;;;;;;;;;;4950405;28;20070;-79
2023/07/18 23:51:48;;;;;;;3.80;2.97;;;;;;;;;;4947704;28;20038;-79
2023/07/18 23:54:15;;;;;;;11.77;4.05;;;;;;;;;;4939797;29;20066;-79
2023/07/18 23:56:42;;;;;;;6.53;3.22;;;;;;;;;;4958757;28;20055;-79
2023/07/18 23:59:09;;;;;;;4.90;3.38;;;;;;;;;;4941457;28;20070;-79
